createdAt,value
2022-08-22T00:01:50.798Z,20.10
2022-08-22T00:02:47.781Z,22.20
2022-08-22T00:04:36.979Z,20.10
2022-08-22T00:07:22.341Z,20.10
2022-08-22T00:09:58.048Z,20.10
2022-08-22T00:12:32.084Z,20.10
2022-08-22T00:15:04.665Z,20.10
2022-08-22T00:17:52.820Z,20.10
2022-08-22T00:20:37.917Z,20.00
2022-08-22T00:23:30.507Z,20.00
2022-08-22T00:26:06.759Z,20.00
2022-08-22T00:28:53.380Z,20.00
2022-08-22T00:31:28.891Z,20.00
2022-08-22T00:34:13.895Z,19.90
2022-08-22T00:36:40.542Z,19.90
2022-08-22T00:39:19.183Z,19.90
2022-08-22T00:42:30.300Z,19.90
2022-08-22T00:45:12.458Z,19.90
2022-08-22T00:47:44.757Z,19.90
2022-08-22T00:50:29.203Z,19.80
2022-08-22T00:53:14.441Z,19.80
2022-08-22T00:55:59.639Z,19.80
2022-08-22T00:58:35.202Z,19.80
2022-08-22T01:01:10.129Z,19.80
2022-08-22T01:03:42.470Z,19.80
2022-08-22T01:06:27.643Z,19.70
2022-08-22T01:09:03.701Z,19.70
2022-08-22T01:11:43.743Z,19.70
2022-08-22T01:14:34.175Z,19.70
2022-08-22T01:17:18.401Z,19.70
2022-08-22T01:19:48.778Z,19.70
2022-08-22T01:22:33.918Z,19.70
2022-08-22T01:25:19.987Z,19.60
2022-08-22T01:28:05.225Z,19.60
2022-08-22T01:30:41.979Z,19.60
2022-08-22T01:33:30.396Z,19.60
2022-08-22T01:35:58.857Z,19.60
2022-08-22T01:38:25.658Z,19.50
2022-08-22T01:40:53.621Z,19.50
2022-08-22T01:43:59.150Z,19.50
2022-08-22T01:46:44.790Z,19.50
2022-08-22T01:49:24.553Z,19.50
2022-08-22T01:52:14.952Z,19.40
2022-08-22T01:54:58.401Z,19.40
2022-08-22T01:57:26.243Z,19.40
2022-08-22T01:59:55.339Z,19.40
2022-08-22T02:02:21.896Z,19.40
2022-08-22T02:04:55.132Z,19.40
2022-08-22T02:07:32.131Z,19.40
2022-08-22T02:10:13.861Z,19.40
2022-08-22T02:12:40.438Z,19.40
2022-08-22T02:15:25.802Z,19.40
2022-08-22T02:17:59.054Z,19.40
2022-08-22T02:20:34.068Z,19.30
2022-08-22T02:23:06.186Z,19.30
2022-08-22T02:26:05.211Z,19.30
2022-08-22T02:28:31.784Z,19.30
2022-08-22T02:31:11.857Z,19.30
2022-08-22T02:33:46.250Z,19.30
2022-08-22T02:36:31.458Z,19.30
2022-08-22T02:39:13.490Z,19.30
2022-08-22T02:41:54.296Z,19.30
2022-08-22T02:44:26.423Z,19.30
2022-08-22T02:47:02.648Z,19.30
2022-08-22T02:49:47.897Z,19.20
2022-08-22T02:52:18.857Z,19.20
2022-08-22T02:54:45.569Z,19.20
2022-08-22T02:57:16.995Z,19.20
2022-08-22T02:59:55.931Z,19.20
2022-08-22T03:02:28.259Z,19.20
2022-08-22T03:05:01.086Z,19.20
2022-08-22T03:07:33.773Z,19.20
2022-08-22T03:10:03.477Z,19.20
2022-08-22T03:12:39.942Z,19.20
2022-08-22T03:15:16.265Z,19.20
2022-08-22T03:17:49.568Z,19.20
2022-08-22T03:20:35.208Z,19.20
2022-08-22T03:23:24.002Z,19.20
2022-08-22T03:25:56.230Z,19.20
2022-08-22T03:28:23.238Z,19.20
2022-08-22T03:30:56.104Z,19.20
2022-08-22T03:33:27.803Z,19.20
2022-08-22T03:36:17.580Z,19.20
2022-08-22T03:39:02.743Z,19.20
2022-08-22T03:41:33.966Z,19.10
2022-08-22T03:44:09.057Z,19.10
2022-08-22T03:46:45.819Z,19.10
2022-08-22T03:49:30.978Z,19.10
2022-08-22T03:52:16.437Z,19.10
2022-08-22T03:54:54.846Z,19.10
2022-08-22T03:57:24.500Z,19.10
2022-08-22T03:59:54.078Z,19.20
2022-08-22T04:02:49.652Z,19.20
2022-08-22T04:05:18.973Z,19.10
2022-08-22T04:08:13.663Z,19.20
2022-08-22T04:11:02.493Z,19.20
2022-08-22T04:13:48.045Z,19.10
2022-08-22T04:16:40.375Z,19.20
2022-08-22T04:19:25.534Z,19.10
2022-08-22T04:22:12.072Z,19.10
2022-08-22T04:24:48.935Z,19.10
2022-08-22T04:27:25.705Z,19.10
2022-08-22T04:29:58.513Z,19.10
2022-08-22T04:32:29.648Z,19.10
2022-08-22T04:34:56.233Z,19.10
2022-08-22T04:37:36.241Z,19.10
2022-08-22T04:40:07.349Z,19.10
2022-08-22T04:42:42.801Z,19.10
2022-08-22T04:45:12.639Z,19.10
2022-08-22T04:47:55.580Z,19.10
2022-08-22T04:50:25.643Z,19.10
2022-08-22T04:53:04.458Z,19.10
2022-08-22T04:55:34.160Z,19.10
2022-08-22T04:58:06.887Z,19.10
2022-08-22T05:00:39.987Z,19.10
2022-08-22T05:03:09.494Z,19.10
2022-08-22T05:05:38.112Z,19.10
2022-08-22T05:08:05.850Z,19.10
2022-08-22T05:10:39.884Z,19.10
2022-08-22T05:13:09.596Z,19.10
2022-08-22T05:15:37.975Z,19.10
2022-08-22T05:18:07.807Z,19.10
2022-08-22T05:20:34.955Z,19.10
2022-08-22T05:23:17.194Z,19.10
2022-08-22T05:25:45.518Z,19.10
2022-08-22T05:28:15.786Z,19.20
2022-08-22T05:30:43.450Z,19.20
2022-08-22T05:33:19.374Z,19.20
2022-08-22T05:35:50.764Z,19.20
2022-08-22T05:38:21.215Z,19.10
2022-08-22T05:40:53.117Z,19.20
2022-08-22T05:43:20.780Z,19.20
2022-08-22T05:45:47.618Z,19.20
2022-08-22T05:48:22.721Z,19.20
2022-08-22T05:50:53.603Z,19.20
2022-08-22T05:53:33.233Z,19.20
2022-08-22T05:56:00.168Z,19.20
2022-08-22T05:58:39.549Z,19.20
2022-08-22T06:01:18.606Z,19.30
2022-08-22T06:03:55.512Z,19.30
2022-08-22T06:06:24.931Z,19.30
2022-08-22T06:09:01.452Z,19.30
2022-08-22T06:11:37.842Z,19.40
2022-08-22T06:14:05.939Z,19.40
2022-08-22T06:16:47.369Z,19.40
2022-08-22T06:19:19.676Z,19.50
2022-08-22T06:21:49.462Z,19.50
2022-08-22T06:24:21.203Z,19.50
2022-08-22T06:26:51.204Z,19.50
2022-08-22T06:29:34.156Z,19.50
2022-08-22T06:32:04.100Z,19.60
2022-08-22T06:34:35.987Z,19.60
2022-08-22T06:37:04.419Z,19.60
2022-08-22T06:39:33.393Z,19.60
2022-08-22T06:42:01.227Z,19.60
2022-08-22T06:44:31.801Z,19.60
2022-08-22T06:47:00.261Z,19.60
2022-08-22T06:49:28.073Z,19.70
2022-08-22T06:52:00.025Z,19.60
2022-08-22T06:54:32.507Z,19.60
2022-08-22T06:57:01.793Z,19.70
2022-08-22T06:59:30.393Z,19.70
2022-08-22T07:02:04.160Z,19.70
2022-08-22T07:04:31.188Z,19.70
2022-08-22T07:06:59.822Z,19.70
2022-08-22T07:09:32.281Z,19.80
2022-08-22T07:12:00.995Z,19.80
2022-08-22T07:14:54.030Z,19.80
2022-08-22T07:17:28.619Z,19.80
2022-08-22T07:19:58.208Z,19.90
2022-08-22T07:22:26.839Z,20.00
2022-08-22T07:24:55.715Z,20.00
2022-08-22T07:27:41.082Z,20.00
2022-08-22T07:30:11.532Z,20.00
2022-08-22T07:32:57.070Z,20.10
2022-08-22T07:35:52.986Z,20.10
2022-08-22T07:38:24.529Z,20.10
2022-08-22T07:41:09.856Z,20.10
2022-08-22T07:43:45.418Z,20.10
2022-08-22T07:46:15.039Z,20.20
2022-08-22T07:49:07.758Z,20.20
2022-08-22T07:51:39.431Z,20.20
2022-08-22T07:54:07.715Z,20.20
2022-08-22T07:56:37.279Z,20.30
2022-08-22T07:59:13.233Z,20.30
2022-08-22T08:01:45.781Z,20.40
2022-08-22T08:04:17.425Z,20.40
2022-08-22T08:06:47.373Z,20.40
2022-08-22T08:09:17.530Z,20.40
2022-08-22T08:11:44.978Z,20.60
2022-08-22T08:14:14.336Z,20.60
2022-08-22T08:16:48.589Z,20.70
2022-08-22T08:19:16.899Z,20.80
2022-08-22T08:21:49.599Z,20.80
2022-08-22T08:24:19.638Z,20.90
2022-08-22T08:27:10.393Z,20.90
2022-08-22T08:29:37.475Z,20.90
2022-08-22T08:32:07.849Z,21.00
2022-08-22T08:34:35.951Z,21.00
2022-08-22T08:37:07.012Z,21.10
2022-08-22T08:39:37.142Z,21.20
2022-08-22T08:42:17.443Z,21.30
2022-08-22T08:44:47.416Z,21.40
2022-08-22T08:47:26.727Z,21.40
2022-08-22T08:50:12.404Z,21.50
2022-08-22T08:52:52.925Z,21.60
2022-08-22T08:55:29.333Z,21.70
2022-08-22T08:57:58.691Z,21.70
2022-08-22T09:00:45.874Z,21.80
2022-08-22T09:03:34.399Z,21.90
2022-08-22T09:06:11.141Z,21.90
2022-08-22T09:08:42.848Z,21.90
2022-08-22T09:11:19.399Z,22.00
2022-08-22T09:14:00.062Z,22.00
2022-08-22T09:16:29.818Z,22.10
2022-08-22T09:19:13.594Z,22.10
2022-08-22T09:21:49.384Z,22.20
2022-08-22T09:24:39.551Z,22.20
2022-08-22T09:27:31.500Z,22.30
2022-08-22T09:30:11.791Z,22.30
2022-08-22T09:32:38.778Z,22.40
2022-08-22T09:35:26.142Z,22.40
2022-08-22T09:38:12.207Z,22.50
2022-08-22T09:40:44.707Z,22.60
2022-08-22T09:43:24.459Z,22.70
2022-08-22T09:46:02.056Z,22.80
2022-08-22T09:48:38.190Z,22.90
2022-08-22T09:51:32.396Z,23.00
2022-08-22T09:53:59.825Z,23.10
2022-08-22T09:56:35.464Z,23.10
2022-08-22T09:59:06.688Z,23.20
2022-08-22T10:01:42.576Z,23.30
2022-08-22T10:04:19.459Z,23.40
2022-08-22T10:07:11.190Z,23.50
2022-08-22T10:10:03.627Z,23.60
2022-08-22T10:12:36.544Z,23.70
2022-08-22T10:15:07.891Z,23.80
2022-08-22T10:17:41.083Z,23.90
2022-08-22T10:20:09.024Z,23.90
2022-08-22T10:22:41.362Z,24.00
2022-08-22T10:25:29.405Z,24.10
2022-08-22T10:28:03.608Z,24.20
2022-08-22T10:30:38.022Z,24.20
2022-08-22T10:33:14.231Z,24.30
2022-08-22T10:35:47.745Z,24.40
2022-08-22T10:38:20.446Z,24.60
2022-08-22T10:40:57.825Z,24.70
2022-08-22T10:43:31.290Z,24.70
2022-08-22T10:46:01.710Z,24.80
2022-08-22T10:48:43.403Z,24.90
2022-08-22T10:51:24.532Z,25.00
2022-08-22T10:54:08.869Z,25.00
2022-08-22T10:56:40.615Z,25.10
2022-08-22T10:59:10.342Z,25.20
2022-08-22T11:01:47.842Z,25.20
2022-08-22T11:04:28.028Z,25.30
2022-08-22T11:06:54.942Z,25.40
2022-08-22T11:09:25.047Z,25.50
2022-08-22T11:12:20.417Z,25.50
2022-08-22T11:15:03.061Z,25.70
2022-08-22T11:17:53.958Z,25.90
2022-08-22T11:20:25.418Z,25.90
2022-08-22T11:23:12.233Z,26.00
2022-08-22T11:25:53.747Z,26.00
2022-08-22T11:28:29.447Z,26.10
2022-08-22T11:31:16.153Z,26.10
2022-08-22T11:33:58.095Z,26.20
2022-08-22T11:36:31.166Z,26.20
2022-08-22T11:39:06.539Z,26.20
2022-08-22T11:41:41.196Z,26.20
2022-08-22T11:44:20.344Z,26.20
2022-08-22T11:46:50.248Z,26.30
2022-08-22T11:49:34.961Z,26.40
2022-08-22T11:52:09.827Z,26.40
2022-08-22T11:54:37.213Z,26.50
2022-08-22T11:57:08.905Z,26.60
2022-08-22T11:59:55.769Z,26.70
2022-08-22T12:02:31.636Z,26.80
2022-08-22T12:05:05.203Z,26.90
2022-08-22T12:07:36.933Z,26.90
2022-08-22T12:10:27.485Z,27.00
2022-08-22T12:13:20.743Z,27.00
2022-08-22T12:16:12.687Z,27.10
2022-08-22T12:18:53.044Z,27.10
2022-08-22T12:21:21.561Z,27.20
2022-08-22T12:23:54.103Z,27.20
2022-08-22T12:26:22.016Z,27.30
2022-08-22T12:29:15.569Z,27.40
2022-08-22T12:31:58.527Z,27.40
2022-08-22T12:34:25.102Z,27.60
2022-08-22T12:36:51.670Z,27.80
2022-08-22T12:39:27.460Z,27.90
2022-08-22T12:42:07.944Z,28.10
2022-08-22T12:44:49.561Z,28.20
2022-08-22T12:47:37.743Z,28.20
2022-08-22T12:50:23.861Z,28.10
2022-08-22T12:52:57.805Z,27.90
2022-08-22T12:55:32.511Z,27.70
2022-08-22T12:58:04.025Z,27.50
2022-08-22T13:00:34.643Z,27.40
2022-08-22T13:03:06.807Z,27.20
2022-08-22T13:05:40.906Z,27.10
2022-08-22T13:08:12.552Z,27.00
2022-08-22T13:10:46.693Z,26.90
2022-08-22T13:13:15.781Z,26.80
2022-08-22T13:15:54.089Z,26.90
2022-08-22T13:18:31.169Z,27.00
2022-08-22T13:21:00.635Z,27.10
2022-08-22T13:23:30.675Z,27.40
2022-08-22T13:26:33.521Z,27.50
2022-08-22T13:29:24.715Z,27.70
2022-08-22T13:31:53.418Z,27.90
2022-08-22T13:34:44.461Z,28.10
2022-08-22T13:37:24.554Z,28.20
2022-08-22T13:39:53.549Z,28.30
2022-08-22T13:42:30.276Z,28.50
2022-08-22T13:44:59.551Z,28.70
2022-08-22T13:47:31.796Z,29.00
2022-08-22T13:50:05.006Z,29.20
2022-08-22T13:52:38.009Z,29.50
2022-08-22T13:55:12.568Z,29.70
2022-08-22T13:57:40.563Z,29.70
2022-08-22T14:00:28.760Z,29.70
2022-08-22T14:02:56.087Z,29.80
2022-08-22T14:05:31.293Z,29.90
2022-08-22T14:08:04.796Z,30.10
2022-08-22T14:10:44.512Z,30.30
2022-08-22T14:13:22.878Z,30.50
2022-08-22T14:15:57.569Z,30.70
2022-08-22T14:18:31.547Z,30.80
2022-08-22T14:21:17.146Z,31.00
2022-08-22T14:23:44.784Z,31.30
2022-08-22T14:26:22.934Z,31.30
2022-08-22T14:29:01.211Z,31.40
2022-08-22T14:31:28.793Z,31.40
2022-08-22T14:33:57.587Z,31.20
2022-08-22T14:36:47.525Z,31.10
2022-08-22T14:39:24.398Z,31.10
2022-08-22T14:41:58.649Z,31.10
2022-08-22T14:44:37.680Z,31.30
2022-08-22T14:47:32.641Z,31.50
2022-08-22T14:49:55.310Z,31.70
2022-08-22T14:52:41.700Z,31.90
2022-08-22T14:55:17.703Z,31.80
2022-08-22T14:57:47.586Z,31.90
2022-08-22T15:00:23.699Z,32.10
2022-08-22T15:03:05.856Z,32.20
2022-08-22T15:05:45.127Z,32.40
2022-08-22T15:08:19.611Z,32.50
2022-08-22T15:11:04.081Z,32.60
2022-08-22T15:13:31.171Z,32.70
2022-08-22T15:16:04.738Z,32.80
2022-08-22T15:18:35.350Z,32.80
2022-08-22T15:21:10.155Z,32.90
2022-08-22T15:23:45.412Z,33.10
2022-08-22T15:26:20.766Z,33.30
2022-08-22T15:28:53.557Z,33.40
2022-08-22T15:31:20.350Z,33.40
2022-08-22T15:33:47.685Z,33.60
2022-08-22T15:36:20.032Z,33.80
2022-08-22T15:38:53.664Z,34.00
2022-08-22T15:41:36.695Z,34.20
2022-08-22T15:44:15.075Z,34.50
2022-08-22T15:47:00.271Z,34.90
2022-08-22T15:49:32.061Z,35.20
2022-08-22T15:51:58.597Z,35.60
2022-08-22T15:54:27.925Z,35.90
2022-08-22T15:57:09.910Z,36.20
2022-08-22T15:59:56.839Z,36.60
2022-08-22T16:02:34.925Z,37.00
2022-08-22T16:05:03.924Z,37.50
2022-08-22T16:07:34.194Z,38.00
2022-08-22T16:10:02.994Z,38.40
2022-08-22T16:12:32.326Z,38.80
2022-08-22T16:15:00.103Z,39.30
2022-08-22T16:17:26.686Z,39.70
2022-08-22T16:20:15.831Z,40.10
2022-08-22T16:22:58.536Z,40.60
2022-08-22T16:25:43.956Z,40.90
2022-08-22T16:28:36.072Z,41.20
2022-08-22T16:31:18.899Z,41.40
2022-08-22T16:33:46.018Z,41.60
2022-08-22T16:36:15.679Z,41.80
2022-08-22T16:38:44.385Z,42.00
2022-08-22T16:41:43.465Z,42.10
2022-08-22T16:44:14.106Z,42.20
2022-08-22T16:46:45.571Z,42.10
2022-08-22T16:49:23.138Z,41.90
2022-08-22T16:52:28.419Z,41.70
2022-08-22T16:55:02.731Z,41.20
2022-08-22T16:57:29.298Z,40.70
2022-08-22T16:59:59.103Z,40.30
2022-08-22T17:02:39.955Z,39.70
2022-08-22T17:05:06.570Z,39.00
2022-08-22T17:07:33.168Z,38.10
2022-08-22T17:10:11.673Z,37.40
2022-08-22T17:12:41.667Z,36.70
2022-08-22T17:15:09.088Z,36.00
2022-08-22T17:17:54.590Z,35.40
2022-08-22T17:20:47.409Z,34.90
2022-08-22T17:23:23.084Z,34.30
2022-08-22T17:26:02.382Z,33.80
2022-08-22T17:28:35.179Z,33.40
2022-08-22T17:31:10.950Z,33.00
2022-08-22T17:33:40.534Z,32.60
2022-08-22T17:36:21.738Z,32.20
2022-08-22T17:38:53.903Z,31.90
2022-08-22T17:41:33.603Z,31.60
2022-08-22T17:44:24.914Z,31.30
2022-08-22T17:46:57.171Z,31.10
2022-08-22T17:49:26.959Z,30.90
2022-08-22T17:51:57.137Z,30.70
2022-08-22T17:54:23.710Z,30.50
2022-08-22T17:57:05.792Z,30.20
2022-08-22T17:59:45.750Z,30.00
2022-08-22T18:02:31.771Z,29.80
2022-08-22T18:05:08.034Z,29.70
2022-08-22T18:07:46.315Z,29.50
2022-08-22T18:10:14.495Z,29.40
2022-08-22T18:13:04.755Z,29.10
2022-08-22T18:15:45.670Z,29.00
2022-08-22T18:18:15.331Z,28.80
2022-08-22T18:20:49.721Z,28.60
2022-08-22T18:23:35.457Z,28.50
2022-08-22T18:26:18.044Z,28.30
2022-08-22T18:28:56.887Z,28.20
2022-08-22T18:31:23.447Z,28.10
2022-08-22T18:33:54.729Z,28.00
2022-08-22T18:36:26.403Z,27.90
2022-08-22T18:38:55.311Z,27.80
2022-08-22T18:41:28.612Z,27.70
2022-08-22T18:43:59.058Z,27.60
2022-08-22T18:46:37.899Z,27.50
2022-08-22T18:49:17.525Z,27.40
2022-08-22T18:51:44.294Z,27.30
2022-08-22T18:54:11.368Z,27.20
2022-08-22T18:56:58.151Z,27.10
2022-08-22T18:59:36.106Z,27.10
2022-08-22T19:02:21.235Z,27.00
2022-08-22T19:04:50.792Z,26.90
2022-08-22T19:07:38.338Z,26.80
2022-08-22T19:10:22.794Z,26.80
2022-08-22T19:12:55.234Z,26.70
2022-08-22T19:15:40.824Z,26.60
2022-08-22T19:18:07.459Z,26.50
2022-08-22T19:20:57.115Z,26.50
2022-08-22T19:23:32.847Z,26.40
2022-08-22T19:26:18.446Z,26.30
2022-08-22T19:28:45.198Z,26.20
2022-08-22T19:31:24.114Z,26.20
2022-08-22T19:34:10.763Z,26.10
2022-08-22T19:36:37.357Z,26.00
2022-08-22T19:39:08.921Z,25.90
2022-08-22T19:41:39.379Z,25.90
2022-08-22T19:44:09.963Z,25.80
2022-08-22T19:46:38.000Z,25.80
2022-08-22T19:49:06.314Z,25.70
2022-08-22T19:51:33.556Z,25.60
2022-08-22T19:54:06.198Z,25.60
2022-08-22T19:56:35.873Z,25.50
2022-08-22T19:59:24.000Z,25.40
2022-08-22T20:02:09.523Z,25.40
2022-08-22T20:04:41.696Z,25.40
2022-08-22T20:07:25.956Z,25.30
2022-08-22T20:09:58.567Z,25.20
2022-08-22T20:12:41.717Z,25.20
2022-08-22T20:15:18.050Z,25.10
2022-08-22T20:18:11.599Z,25.00
2022-08-22T20:20:38.108Z,25.00
2022-08-22T20:23:25.098Z,25.00
2022-08-22T20:25:54.271Z,24.90
2022-08-22T20:28:29.923Z,24.80
2022-08-22T20:30:58.417Z,24.80
2022-08-22T20:33:27.796Z,24.70
2022-08-22T20:35:56.058Z,24.70
2022-08-22T20:38:24.462Z,24.70
2022-08-22T20:40:59.594Z,24.60
2022-08-22T20:43:35.335Z,24.50
2022-08-22T20:46:17.288Z,24.50
2022-08-22T20:48:44.781Z,24.40
2022-08-22T20:51:13.768Z,24.40
2022-08-22T20:53:40.394Z,24.30
2022-08-22T20:56:08.065Z,24.30
2022-08-22T20:58:39.674Z,24.20
2022-08-22T21:01:07.289Z,24.30
2022-08-22T21:03:44.484Z,24.20
2022-08-22T21:06:13.208Z,24.20
2022-08-22T21:08:40.518Z,24.20
2022-08-22T21:11:26.338Z,24.10
2022-08-22T21:13:53.367Z,24.10
2022-08-22T21:16:33.264Z,24.10
2022-08-22T21:19:03.177Z,24.10
2022-08-22T21:21:33.270Z,24.00
2022-08-22T21:24:07.422Z,24.00
2022-08-22T21:26:38.285Z,24.00
2022-08-22T21:29:14.259Z,24.00
2022-08-22T21:31:52.702Z,23.90
2022-08-22T21:34:21.544Z,23.90
2022-08-22T21:36:53.145Z,23.90
2022-08-22T21:39:28.624Z,23.90
2022-08-22T21:42:01.159Z,23.90
2022-08-22T21:44:27.729Z,23.80
2022-08-22T21:46:54.735Z,23.80
2022-08-22T21:49:23.100Z,23.70
2022-08-22T21:51:50.334Z,23.70
2022-08-22T21:54:27.808Z,23.70
2022-08-22T21:56:55.661Z,23.70
2022-08-22T21:59:50.840Z,23.60
2022-08-22T22:02:25.766Z,23.60
2022-08-22T22:04:54.712Z,23.60
2022-08-22T22:07:23.633Z,23.50
2022-08-22T22:09:52.991Z,23.50
2022-08-22T22:12:22.472Z,23.40
2022-08-22T22:14:49.556Z,23.40
2022-08-22T22:17:16.769Z,23.40
2022-08-22T22:19:43.352Z,23.30
2022-08-22T22:22:10.176Z,23.30
2022-08-22T22:24:37.099Z,23.20
2022-08-22T22:27:04.543Z,23.20
2022-08-22T22:29:32.013Z,23.20
2022-08-22T22:31:58.647Z,23.10
2022-08-22T22:34:25.725Z,23.10
2022-08-22T22:36:53.424Z,23.10
2022-08-22T22:39:20.019Z,23.00
2022-08-22T22:41:46.604Z,23.00
2022-08-22T22:44:13.351Z,22.90
2022-08-22T22:46:39.963Z,22.90
2022-08-22T22:49:06.569Z,22.80
2022-08-22T22:51:33.254Z,22.80
2022-08-22T22:53:59.982Z,22.80
2022-08-22T22:56:27.929Z,22.80
2022-08-22T22:59:01.034Z,22.70
2022-08-22T23:01:58.685Z,22.80
2022-08-22T23:04:25.321Z,22.70
2022-08-22T23:06:51.912Z,22.70
2022-08-22T23:09:18.600Z,22.70
2022-08-22T23:11:45.536Z,22.70
2022-08-22T23:14:12.191Z,22.70
2022-08-22T23:16:39.355Z,22.70
2022-08-22T23:19:10.190Z,22.70
2022-08-22T23:21:36.767Z,22.70
2022-08-22T23:24:04.245Z,22.60
2022-08-22T23:26:31.106Z,22.60
2022-08-22T23:28:58.319Z,22.60
2022-08-22T23:31:27.907Z,22.50
2022-08-22T23:33:55.291Z,22.50
2022-08-22T23:36:22.783Z,22.50
2022-08-22T23:38:50.444Z,22.50
2022-08-22T23:41:18.253Z,22.50
2022-08-22T23:43:45.608Z,22.40
2022-08-22T23:46:13.118Z,22.40
2022-08-22T23:48:39.897Z,22.40
2022-08-22T23:51:06.525Z,22.40
2022-08-22T23:53:33.369Z,22.30
2022-08-22T23:56:19.501Z,22.30
2022-08-22T23:58:47.419Z,22.30
